createdAt,value
2022-10-14T00:02:22.597Z,9.86
2022-10-14T00:04:49.175Z,9.83
2022-10-14T00:07:15.766Z,9.93
2022-10-14T00:09:42.329Z,9.77
2022-10-14T00:12:08.982Z,9.71
2022-10-14T00:14:35.559Z,9.67
2022-10-14T00:17:02.155Z,9.74
2022-10-14T00:19:28.740Z,9.92
2022-10-14T00:21:55.315Z,9.88
2022-10-14T00:24:21.892Z,9.94
2022-10-14T00:26:48.474Z,9.97
2022-10-14T00:29:17.072Z,9.96
2022-10-14T00:31:43.687Z,9.59
2022-10-14T00:34:10.583Z,9.44
2022-10-14T00:36:37.144Z,9.68
2022-10-14T00:39:03.746Z,9.47
2022-10-14T00:41:32.607Z,9.54
2022-10-14T00:44:11.302Z,9.76
2022-10-14T00:46:49.049Z,9.57
2022-10-14T00:49:15.649Z,9.40
2022-10-14T00:51:46.830Z,9.55
2022-10-14T00:54:16.760Z,9.56
2022-10-14T00:56:45.099Z,9.51
2022-10-14T00:59:12.088Z,9.49
2022-10-14T01:01:38.694Z,9.27
2022-10-14T01:04:05.449Z,9.47
2022-10-14T01:06:46.910Z,9.43
2022-10-14T01:09:38.202Z,9.28
2022-10-14T01:12:28.180Z,9.34
2022-10-14T01:15:12.605Z,9.21
2022-10-14T01:17:53.923Z,9.07
2022-10-14T01:20:30.830Z,9.04
2022-10-14T01:23:06.903Z,9.05
2022-10-14T01:26:17.957Z,8.86
2022-10-14T01:29:18.601Z,8.92
2022-10-14T01:31:50.973Z,9.27
2022-10-14T01:34:29.072Z,9.24
2022-10-14T01:37:02.925Z,9.12
2022-10-14T01:39:36.123Z,9.05
2022-10-14T01:42:11.495Z,9.13
2022-10-14T01:44:43.312Z,9.30
2022-10-14T01:47:14.001Z,9.38
2022-10-14T01:50:01.525Z,9.07
2022-10-14T01:52:38.163Z,9.13
2022-10-14T01:55:09.900Z,8.99
2022-10-14T01:57:39.725Z,8.99
2022-10-14T02:00:07.179Z,9.13
2022-10-14T02:02:37.042Z,8.99
2022-10-14T02:05:30.294Z,8.84
2022-10-14T02:08:43.320Z,9.05
2022-10-14T02:11:46.013Z,9.05
2022-10-14T02:14:33.890Z,9.00
2022-10-14T02:17:17.641Z,9.15
2022-10-14T02:19:49.576Z,9.18
2022-10-14T02:22:24.675Z,9.13
2022-10-14T02:24:55.805Z,9.28
2022-10-14T02:27:26.199Z,9.21
2022-10-14T02:29:56.206Z,9.28
2022-10-14T02:32:25.758Z,9.10
2022-10-14T02:34:57.803Z,8.95
2022-10-14T02:37:26.454Z,9.13
2022-10-14T02:40:01.894Z,8.87
2022-10-14T02:42:28.675Z,9.08
2022-10-14T02:44:58.509Z,8.97
2022-10-14T02:47:25.506Z,9.17
2022-10-14T02:49:52.937Z,9.01
2022-10-14T02:52:20.146Z,8.86
2022-10-14T02:54:46.924Z,8.90
2022-10-14T02:57:13.513Z,8.97
2022-10-14T02:59:40.152Z,8.85
2022-10-14T03:02:07.591Z,8.82
2022-10-14T03:04:35.047Z,8.82
2022-10-14T03:07:01.649Z,8.99
2022-10-14T03:09:28.249Z,8.79
2022-10-14T03:11:54.826Z,8.71
2022-10-14T03:14:21.420Z,8.58
2022-10-14T03:16:48.085Z,8.72
2022-10-14T03:19:14.740Z,8.59
2022-10-14T03:21:41.301Z,8.75
2022-10-14T03:24:09.215Z,8.63
2022-10-14T03:26:35.793Z,8.75
2022-10-14T03:29:02.399Z,8.65
2022-10-14T03:31:28.982Z,8.74
2022-10-14T03:33:55.571Z,8.67
2022-10-14T03:36:22.164Z,8.82
2022-10-14T03:38:48.753Z,8.73
2022-10-14T03:41:15.359Z,8.90
2022-10-14T03:43:41.935Z,8.96
2022-10-14T03:46:08.535Z,8.72
2022-10-14T03:48:35.170Z,8.90
2022-10-14T03:51:01.742Z,8.85
2022-10-14T03:53:28.306Z,8.74
2022-10-14T03:55:55.010Z,8.73
2022-10-14T03:58:21.575Z,9.04
2022-10-14T04:00:48.196Z,9.03
2022-10-14T04:03:14.871Z,8.96
2022-10-14T04:05:41.482Z,8.88
2022-10-14T04:08:08.240Z,8.81
2022-10-14T04:10:35.419Z,8.76
2022-10-14T04:13:02.006Z,8.94
2022-10-14T04:15:28.611Z,8.90
2022-10-14T04:17:56.520Z,9.11
2022-10-14T04:20:23.334Z,8.88
2022-10-14T04:22:49.935Z,8.69
2022-10-14T04:25:16.543Z,8.47
2022-10-14T04:27:43.225Z,8.71
2022-10-14T04:30:10.594Z,8.76
2022-10-14T04:32:37.326Z,8.67
2022-10-14T04:35:04.335Z,8.85
2022-10-14T04:37:31.193Z,8.85
2022-10-14T04:39:57.888Z,8.91
2022-10-14T04:42:24.741Z,9.02
2022-10-14T04:44:54.275Z,9.34
2022-10-14T04:47:20.972Z,9.32
2022-10-14T04:49:47.557Z,9.26
2022-10-14T04:52:14.302Z,9.01
2022-10-14T04:54:40.909Z,9.04
2022-10-14T04:57:07.547Z,8.87
2022-10-14T04:59:34.116Z,8.73
2022-10-14T05:02:00.769Z,8.69
2022-10-14T05:04:27.489Z,8.74
2022-10-14T05:06:54.063Z,8.99
2022-10-14T05:09:20.656Z,8.75
2022-10-14T05:11:47.301Z,8.61
2022-10-14T05:14:13.882Z,8.72
2022-10-14T05:16:40.467Z,8.96
2022-10-14T05:19:07.051Z,8.99
2022-10-14T05:21:33.622Z,8.65
2022-10-14T05:24:00.216Z,8.46
2022-10-14T05:26:26.821Z,8.62
2022-10-14T05:28:53.465Z,8.57
2022-10-14T05:31:20.072Z,8.28
2022-10-14T05:33:46.706Z,8.24
2022-10-14T05:36:13.275Z,8.41
2022-10-14T05:38:39.891Z,8.51
2022-10-14T05:41:06.501Z,8.56
2022-10-14T05:43:33.232Z,8.73
2022-10-14T05:46:00.583Z,8.81
2022-10-14T05:48:27.293Z,8.64
2022-10-14T05:50:54.299Z,8.41
2022-10-14T05:53:20.967Z,8.32
2022-10-14T05:55:47.552Z,8.54
2022-10-14T05:58:14.152Z,8.49
2022-10-14T06:00:40.740Z,8.53
2022-10-14T06:03:07.423Z,8.65
2022-10-14T06:05:37.073Z,8.91
2022-10-14T06:08:03.762Z,8.64
2022-10-14T06:10:30.339Z,8.45
2022-10-14T06:12:57.220Z,8.67
2022-10-14T06:15:23.795Z,8.41
2022-10-14T06:17:50.578Z,8.39
2022-10-14T06:20:17.236Z,8.43
2022-10-14T06:22:43.830Z,8.39
2022-10-14T06:25:10.395Z,8.40
2022-10-14T06:27:37.000Z,8.33
2022-10-14T06:30:04.827Z,8.40
2022-10-14T06:32:31.381Z,8.61
2022-10-14T06:34:57.953Z,8.75
2022-10-14T06:37:24.696Z,8.74
2022-10-14T06:39:51.296Z,8.64
2022-10-14T06:42:17.879Z,8.56
2022-10-14T06:44:44.475Z,8.62
2022-10-14T06:47:11.059Z,9.00
2022-10-14T06:49:37.632Z,8.88
2022-10-14T06:52:04.361Z,8.87
2022-10-14T06:54:34.450Z,8.88
2022-10-14T06:57:03.521Z,8.97
2022-10-14T06:59:30.111Z,9.17
2022-10-14T07:01:57.287Z,8.92
2022-10-14T07:04:23.960Z,8.92
2022-10-14T07:06:50.571Z,8.91
2022-10-14T07:09:17.484Z,9.03
2022-10-14T07:11:44.054Z,8.99
2022-10-14T07:14:10.660Z,9.05
2022-10-14T07:16:37.308Z,9.02
2022-10-14T07:19:03.881Z,9.31
2022-10-14T07:21:30.489Z,9.32
2022-10-14T07:23:57.119Z,9.36
2022-10-14T07:26:23.716Z,9.31
2022-10-14T07:28:50.480Z,9.37
2022-10-14T07:31:17.114Z,9.25
2022-10-14T07:33:43.754Z,9.27
2022-10-14T07:36:16.052Z,9.35
2022-10-14T07:38:46.001Z,9.37
2022-10-14T07:41:16.570Z,9.47
2022-10-14T07:43:44.710Z,9.49
2022-10-14T07:46:11.981Z,9.52
2022-10-14T07:48:52.542Z,9.67
2022-10-14T07:51:22.852Z,9.74
2022-10-14T07:53:49.487Z,9.75
2022-10-14T07:56:16.119Z,9.67
2022-10-14T07:58:44.622Z,9.87
2022-10-14T08:01:11.368Z,10.18
2022-10-14T08:03:38.004Z,10.28
2022-10-14T08:06:05.569Z,10.44
2022-10-14T08:08:33.097Z,11.00
2022-10-14T08:11:20.915Z,11.23
2022-10-14T08:13:48.156Z,11.33
2022-10-14T08:16:20.345Z,11.92
2022-10-14T08:18:47.515Z,11.73
2022-10-14T08:21:15.983Z,12.01
2022-10-14T08:23:43.094Z,12.15
2022-10-14T08:26:33.994Z,11.98
2022-10-14T08:29:03.050Z,12.08
2022-10-14T08:31:29.644Z,12.41
2022-10-14T08:33:56.301Z,12.67
2022-10-14T08:36:23.726Z,12.63
2022-10-14T08:38:52.822Z,12.86
2022-10-14T08:41:37.450Z,13.28
2022-10-14T08:44:25.337Z,13.44
2022-10-14T08:46:58.785Z,13.44
2022-10-14T08:50:00.561Z,13.46
2022-10-14T08:52:58.178Z,13.83
2022-10-14T08:55:46.565Z,13.84
2022-10-14T08:58:13.171Z,13.77
2022-10-14T09:00:42.536Z,13.91
2022-10-14T09:03:23.979Z,14.29
2022-10-14T09:05:57.579Z,14.06
2022-10-14T09:08:29.485Z,14.14
2022-10-14T09:10:57.143Z,14.50
2022-10-14T09:13:35.419Z,14.57
2022-10-14T09:16:14.383Z,14.91
2022-10-14T09:18:55.614Z,15.00
2022-10-14T09:24:25.853Z,15.30
2022-10-14T09:27:00.505Z,14.98
2022-10-14T09:29:30.745Z,15.30
2022-10-14T09:32:05.600Z,15.33
2022-10-14T09:34:39.654Z,15.18
2022-10-14T09:37:37.228Z,15.48
2022-10-14T09:40:12.813Z,15.80
2022-10-14T09:42:57.034Z,15.97
2022-10-14T09:45:25.218Z,15.65
2022-10-14T09:48:03.967Z,15.88
2022-10-14T09:50:36.208Z,15.94
2022-10-14T09:53:16.157Z,16.24
2022-10-14T09:55:57.613Z,16.21
2022-10-14T09:58:42.649Z,16.38
2022-10-14T10:01:16.490Z,16.52
2022-10-14T10:06:54.452Z,16.44
2022-10-14T10:09:21.873Z,16.33
2022-10-14T10:11:48.944Z,16.47
2022-10-14T10:14:44.825Z,16.46
2022-10-14T10:17:17.058Z,16.49
2022-10-14T10:19:46.604Z,16.52
2022-10-14T10:22:16.275Z,16.68
2022-10-14T10:24:42.926Z,16.84
2022-10-14T10:27:21.261Z,17.20
2022-10-14T10:29:48.091Z,17.09
2022-10-14T10:32:31.004Z,17.13
2022-10-14T10:35:14.012Z,16.87
2022-10-14T10:38:02.641Z,17.27
2022-10-14T10:40:41.006Z,17.10
2022-10-14T10:43:26.650Z,17.45
2022-10-14T10:46:16.260Z,17.54
2022-10-14T10:48:56.320Z,17.49
2022-10-14T10:51:35.711Z,17.50
2022-10-14T10:54:40.232Z,17.40
2022-10-14T10:57:28.574Z,17.28
2022-10-14T11:00:04.388Z,17.12
2022-10-14T11:02:50.601Z,17.13
2022-10-14T11:05:23.987Z,17.16
2022-10-14T11:07:50.589Z,17.51
2022-10-14T11:10:20.012Z,17.73
2022-10-14T11:12:56.411Z,17.78
2022-10-14T11:15:44.901Z,17.67
2022-10-14T11:18:26.505Z,17.56
2022-10-14T11:21:08.270Z,17.92
2022-10-14T11:23:53.200Z,18.03
2022-10-14T11:26:43.305Z,18.15
2022-10-14T11:29:43.815Z,17.93
2022-10-14T11:32:55.485Z,17.70
2022-10-14T11:35:22.074Z,17.37
2022-10-14T11:38:07.097Z,17.67
2022-10-14T11:40:50.150Z,17.40
2022-10-14T11:43:32.807Z,17.86
2022-10-14T11:46:12.046Z,17.25
2022-10-14T11:48:45.795Z,17.59
2022-10-14T11:51:35.718Z,17.93
2022-10-14T11:54:25.402Z,18.35
2022-10-14T11:57:00.557Z,18.30
2022-10-14T11:59:47.941Z,18.17
2022-10-14T12:02:53.982Z,18.26
2022-10-14T12:05:49.738Z,18.21
2022-10-14T12:08:56.632Z,18.37
2022-10-14T12:11:25.937Z,18.75
2022-10-14T12:14:15.862Z,18.70
2022-10-14T12:16:46.252Z,18.49
2022-10-14T12:19:22.519Z,18.71
2022-10-14T12:21:54.158Z,19.00
2022-10-14T12:24:24.078Z,19.43
2022-10-14T12:26:57.848Z,18.95
2022-10-14T12:29:45.276Z,19.21
2022-10-14T12:32:17.805Z,18.96
2022-10-14T12:34:46.612Z,18.64
2022-10-14T12:37:28.917Z,19.04
2022-10-14T12:40:04.240Z,18.75
2022-10-14T12:42:35.042Z,18.54
2022-10-14T12:45:13.488Z,18.28
2022-10-14T12:47:41.204Z,18.27
2022-10-14T12:50:13.737Z,18.18
2022-10-14T12:52:47.696Z,18.62
2022-10-14T12:55:26.162Z,18.74
2022-10-14T12:58:04.140Z,18.63
2022-10-14T13:00:38.599Z,18.85
2022-10-14T13:03:17.924Z,18.40
2022-10-14T13:05:45.563Z,18.44
2022-10-14T13:08:27.569Z,18.88
2022-10-14T13:11:00.420Z,18.45
2022-10-14T13:13:39.203Z,18.91
2022-10-14T13:16:10.405Z,19.08
2022-10-14T13:18:49.150Z,19.16
2022-10-14T13:21:28.158Z,19.20
2022-10-14T13:23:55.695Z,18.62
2022-10-14T13:26:40.924Z,18.68
2022-10-14T13:30:09.305Z,19.18
2022-10-14T13:32:48.892Z,19.22
2022-10-14T13:35:46.802Z,19.38
2022-10-14T13:38:16.962Z,19.55
2022-10-14T13:40:46.887Z,18.95
2022-10-14T13:43:24.745Z,19.36
2022-10-14T13:46:15.397Z,19.43
2022-10-14T13:48:51.860Z,19.36
2022-10-14T13:51:36.144Z,18.74
2022-10-14T13:54:22.762Z,18.80
2022-10-14T14:02:43.308Z,19.11
2022-10-14T14:05:16.258Z,18.99
2022-10-14T14:10:30.499Z,18.65
2022-10-14T14:12:59.077Z,18.48
2022-10-14T14:15:29.261Z,18.33
2022-10-14T14:18:30.530Z,18.57
2022-10-14T14:21:04.966Z,18.47
2022-10-14T14:23:31.567Z,18.05
2022-10-14T14:26:18.373Z,18.05
2022-10-14T14:28:47.924Z,17.86
2022-10-14T14:31:17.686Z,17.78
2022-10-14T14:33:45.852Z,17.83
2022-10-14T14:36:27.475Z,17.69
2022-10-14T14:39:02.095Z,17.45
2022-10-14T14:41:31.454Z,17.49
2022-10-14T14:46:52.301Z,17.30
2022-10-14T14:49:38.615Z,17.50
2022-10-14T14:52:06.467Z,17.58
2022-10-14T14:54:33.055Z,17.38
2022-10-14T14:56:59.645Z,17.37
2022-10-14T14:59:29.139Z,17.43
2022-10-14T15:04:34.062Z,17.37
2022-10-14T15:07:05.080Z,17.18
2022-10-14T15:09:47.912Z,17.17
2022-10-14T15:12:20.158Z,17.03
2022-10-14T15:14:51.907Z,16.97
2022-10-14T15:17:40.038Z,17.21
2022-10-14T15:20:29.553Z,17.18
2022-10-14T15:22:56.371Z,17.02
2022-10-14T15:25:29.853Z,17.03
2022-10-14T15:28:00.989Z,16.83
2022-10-14T15:30:39.736Z,16.70
2022-10-14T15:33:21.745Z,16.42
2022-10-14T15:35:58.520Z,16.54
2022-10-14T15:38:26.503Z,16.67
2022-10-14T15:40:53.632Z,16.74
2022-10-14T15:43:25.023Z,16.52
2022-10-14T15:45:54.428Z,16.21
2022-10-14T15:48:21.052Z,15.97
2022-10-14T15:50:48.032Z,15.86
2022-10-14T15:53:17.306Z,15.77
2022-10-14T15:55:43.878Z,15.67
2022-10-14T15:58:10.458Z,15.69
2022-10-14T16:00:37.132Z,15.61
2022-10-14T16:03:03.895Z,15.47
2022-10-14T16:05:30.557Z,15.41
2022-10-14T16:07:57.552Z,15.42
2022-10-14T16:10:35.385Z,15.31
2022-10-14T16:13:01.963Z,15.21
2022-10-14T16:15:28.470Z,15.18
2022-10-14T16:17:55.481Z,15.32
2022-10-14T16:20:22.655Z,15.33
2022-10-14T16:22:50.162Z,14.98
2022-10-14T16:25:24.085Z,14.87
2022-10-14T16:27:50.817Z,14.75
2022-10-14T16:30:17.518Z,14.74
2022-10-14T16:32:44.202Z,14.78
2022-10-14T16:35:10.805Z,14.64
2022-10-14T16:37:37.473Z,14.46
2022-10-14T16:40:05.305Z,14.38
2022-10-14T16:42:31.923Z,14.28
2022-10-14T16:44:58.632Z,14.31
2022-10-14T16:47:25.485Z,14.30
2022-10-14T16:49:53.970Z,14.28
2022-10-14T16:52:21.412Z,14.29
2022-10-14T16:54:48.352Z,14.32
2022-10-14T16:57:15.360Z,14.37
2022-10-14T16:59:42.186Z,14.20
2022-10-14T17:02:13.923Z,14.22
2022-10-14T17:04:40.505Z,14.20
2022-10-14T17:07:07.136Z,14.13
2022-10-14T17:09:35.202Z,13.98
2022-10-14T17:12:05.009Z,13.82
2022-10-14T17:14:32.486Z,13.81
2022-10-14T17:16:59.820Z,13.76
2022-10-14T17:19:26.878Z,13.79
2022-10-14T17:21:53.454Z,13.84
2022-10-14T17:24:20.274Z,13.95
2022-10-14T17:26:46.887Z,14.03
2022-10-14T17:29:13.617Z,14.02
2022-10-14T17:31:40.206Z,13.94
2022-10-14T17:34:06.840Z,13.91
2022-10-14T17:36:33.494Z,13.72
2022-10-14T17:39:00.498Z,13.73
2022-10-14T17:41:29.560Z,13.78
2022-10-14T17:43:57.677Z,13.68
2022-10-14T17:46:25.804Z,13.60
2022-10-14T17:48:57.836Z,13.61
2022-10-14T17:51:26.225Z,13.50
2022-10-14T17:53:54.399Z,13.48
2022-10-14T17:56:21.057Z,13.49
2022-10-14T17:58:47.630Z,13.42
2022-10-14T18:01:15.643Z,13.26
2022-10-14T18:03:44.241Z,13.14
2022-10-14T18:06:15.782Z,13.20
2022-10-14T18:08:43.996Z,13.24
2022-10-14T18:11:11.551Z,13.30
2022-10-14T18:16:12.729Z,13.31
2022-10-14T18:18:40.787Z,13.27
2022-10-14T18:21:08.813Z,13.30
2022-10-14T18:23:38.725Z,13.25
2022-10-14T18:26:13.430Z,13.16
2022-10-14T18:28:48.758Z,13.13
2022-10-14T18:31:18.573Z,13.00
2022-10-14T18:33:46.378Z,13.00
2022-10-14T18:36:16.542Z,13.05
2022-10-14T18:38:48.566Z,13.02
2022-10-14T18:41:15.502Z,12.95
2022-10-14T18:43:42.130Z,12.91
2022-10-14T18:46:45.316Z,12.83
2022-10-14T18:49:12.125Z,12.76
2022-10-14T18:51:40.747Z,12.73
2022-10-14T18:54:20.082Z,12.84
2022-10-14T18:56:47.529Z,12.80
2022-10-14T18:59:19.935Z,12.63
2022-10-14T19:01:47.562Z,12.60
2022-10-14T19:04:16.065Z,12.56
2022-10-14T19:06:42.832Z,12.55
2022-10-14T19:09:09.521Z,12.53
2022-10-14T19:11:36.099Z,12.46
2022-10-14T19:14:06.915Z,12.48
2022-10-14T19:16:38.699Z,12.45
2022-10-14T19:19:08.424Z,12.47
2022-10-14T19:21:35.222Z,12.47
2022-10-14T19:24:03.030Z,12.62
2022-10-14T19:26:32.776Z,12.61
2022-10-14T19:29:01.232Z,12.48
2022-10-14T19:31:30.675Z,12.36
2022-10-14T19:34:00.435Z,12.27
2022-10-14T19:36:27.679Z,12.12
2022-10-14T19:38:56.924Z,12.11
2022-10-14T19:41:28.371Z,12.11
2022-10-14T19:43:57.205Z,12.11
2022-10-14T19:46:24.230Z,12.11
2022-10-14T19:48:50.830Z,12.10
2022-10-14T19:51:17.434Z,12.27
2022-10-14T19:53:44.534Z,12.23
2022-10-14T19:56:13.425Z,12.44
2022-10-14T19:58:44.706Z,12.64
2022-10-14T20:01:11.808Z,12.55
2022-10-14T20:03:38.660Z,12.58
2022-10-14T20:06:07.005Z,12.44
2022-10-14T20:08:34.691Z,12.42
2022-10-14T20:11:05.565Z,12.40
2022-10-14T20:13:34.195Z,12.15
2022-10-14T20:16:02.336Z,12.08
2022-10-14T20:18:33.046Z,12.20
2022-10-14T20:21:01.266Z,12.02
2022-10-14T20:23:27.928Z,12.25
2022-10-14T20:26:07.016Z,11.99
2022-10-14T20:28:38.265Z,11.86
2022-10-14T20:31:10.262Z,11.85
2022-10-14T20:33:37.203Z,12.04
2022-10-14T20:36:10.709Z,11.88
2022-10-14T20:38:38.628Z,11.93
2022-10-14T20:41:07.528Z,11.96
2022-10-14T20:43:34.145Z,11.83
2022-10-14T20:46:00.795Z,11.92
2022-10-14T20:48:27.349Z,11.81
2022-10-14T20:50:54.065Z,11.73
2022-10-14T20:53:20.637Z,11.84
2022-10-14T20:55:47.238Z,11.86
2022-10-14T20:58:13.904Z,11.67
2022-10-14T21:00:40.487Z,11.58
2022-10-14T21:03:07.078Z,11.56
2022-10-14T21:05:36.241Z,11.76
2022-10-14T21:08:03.347Z,11.50
2022-10-14T21:10:29.983Z,11.50
2022-10-14T21:13:35.768Z,11.54
2022-10-14T21:16:02.653Z,11.44
2022-10-14T21:18:29.223Z,11.50
2022-10-14T21:20:55.830Z,11.46
2022-10-14T21:23:22.495Z,11.45
2022-10-14T21:25:56.843Z,11.52
2022-10-14T21:28:23.964Z,11.23
2022-10-14T21:30:50.599Z,11.07
2022-10-14T21:33:17.241Z,11.21
2022-10-14T21:35:43.929Z,11.27
2022-10-14T21:38:10.558Z,11.19
2022-10-14T21:40:37.156Z,11.21
2022-10-14T21:43:03.760Z,11.22
2022-10-14T21:45:30.334Z,11.12
2022-10-14T21:50:28.590Z,10.99
2022-10-14T21:52:55.207Z,10.99
2022-10-14T21:55:21.793Z,11.12
2022-10-14T21:57:48.378Z,11.05
2022-10-14T22:00:15.135Z,10.96
2022-10-14T22:02:41.723Z,11.05
2022-10-14T22:05:08.523Z,11.09
2022-10-14T22:07:35.193Z,11.15
2022-10-14T22:10:01.786Z,11.04
2022-10-14T22:12:28.370Z,11.05
2022-10-14T22:14:56.057Z,11.05
2022-10-14T22:17:22.874Z,11.02
2022-10-14T22:19:49.587Z,10.98
2022-10-14T22:22:16.255Z,11.01
2022-10-14T22:24:43.087Z,10.94
2022-10-14T22:27:09.667Z,11.03
2022-10-14T22:29:36.282Z,11.04
2022-10-14T22:32:02.861Z,11.13
2022-10-14T22:34:29.420Z,11.00
2022-10-14T22:36:56.047Z,10.97
2022-10-14T22:39:22.625Z,10.87
2022-10-14T22:41:49.325Z,10.87
2022-10-14T22:44:15.910Z,10.84
2022-10-14T22:46:42.515Z,10.79
2022-10-14T22:49:09.140Z,10.83
2022-10-14T22:51:38.465Z,10.62
2022-10-14T22:54:05.149Z,10.52
2022-10-14T22:56:32.733Z,10.56
2022-10-14T22:59:01.750Z,10.62
2022-10-14T23:01:29.390Z,10.67
2022-10-14T23:03:57.464Z,10.61
2022-10-14T23:06:25.065Z,10.61
2022-10-14T23:08:51.675Z,10.55
2022-10-14T23:11:20.130Z,10.60
2022-10-14T23:13:47.075Z,10.65
2022-10-14T23:16:19.171Z,10.45
2022-10-14T23:18:46.669Z,10.45
2022-10-14T23:21:14.898Z,10.53
2022-10-14T23:23:42.042Z,10.41
2022-10-14T23:26:10.394Z,10.36
2022-10-14T23:28:38.107Z,10.32
2022-10-14T23:31:13.166Z,10.22
2022-10-14T23:33:40.777Z,10.48
2022-10-14T23:36:09.992Z,10.26
2022-10-14T23:38:37.422Z,10.34
2022-10-14T23:41:05.345Z,10.35
2022-10-14T23:43:31.999Z,10.34
2022-10-14T23:45:59.239Z,10.29
2022-10-14T23:48:26.094Z,10.15
2022-10-14T23:50:53.242Z,10.08
2022-10-14T23:53:19.987Z,10.00
2022-10-14T23:55:47.308Z,10.07
2022-10-14T23:58:14.092Z,9.99
